Time,TemperatureF,DewpointF,PressureIn,WindDirection,WindDirectionDegrees,WindSpeedMPH,WindSpeedGustMPH,Humidity,HourlyPrecipIn,Conditions,Clouds,dailyrainin,SolarRadiationWatts/m^2,SoftwareType,DateUTC
2013-03-15 00:02:00,58.0,38.0,-100.00,WSW,242,5.0,7.0,48,0.00,,,0.00,0.000000,,2013-03-15 05:02:00,
2013-03-15 00:12:00,58.0,38.0,-100.00,WSW,242,5.0,7.0,48,0.00,,,0.00,0.000000,,2013-03-15 05:12:00,
2013-03-15 00:32:00,58.0,39.0,-100.00,WSW,254,6.0,10.0,50,0.00,,,0.00,0.000000,,2013-03-15 05:32:00,
2013-03-15 00:42:00,58.0,39.0,-100.00,WSW,254,6.0,10.0,50,0.00,,,0.00,0.000000,,2013-03-15 05:42:00,
2013-03-15 00:52:00,58.0,39.0,-100.00,WSW,254,6.0,10.0,50,0.00,,,0.00,0.000000,,2013-03-15 05:52:00,
2013-03-15 01:02:00,58.0,39.0,-100.00,WSW,254,6.0,10.0,50,0.00,,,0.00,0.000000,,2013-03-15 06:02:00,
2013-03-15 01:12:00,58.0,39.0,-100.00,WSW,254,6.0,10.0,50,0.00,,,0.00,0.000000,,2013-03-15 06:12:00,
2013-03-15 01:32:00,57.0,40.0,-100.00,WSW,243,5.0,10.0,52,0.00,,,0.00,0.000000,,2013-03-15 06:32:00,
2013-03-15 01:42:00,57.0,40.0,-100.00,WSW,243,5.0,10.0,52,0.00,,,0.00,0.000000,,2013-03-15 06:42:00,
2013-03-15 01:53:00,57.0,40.0,-100.00,WSW,243,5.0,10.0,52,0.00,,,0.00,0.000000,,2013-03-15 06:53:00,
2013-03-15 02:02:00,57.0,40.0,-100.00,WSW,243,5.0,10.0,52,0.00,,,0.00,0.000000,,2013-03-15 07:02:00,
2013-03-15 02:12:00,57.0,40.0,-100.00,WSW,243,5.0,10.0,52,0.00,,,0.00,0.000000,,2013-03-15 07:12:00,
2013-03-15 02:32:00,55.0,39.0,-100.00,SW,218,5.0,8.0,55,0.00,,,0.00,0.000000,,2013-03-15 07:32:00,
2013-03-15 02:42:00,55.0,39.0,-100.00,SW,218,5.0,8.0,55,0.00,,,0.00,0.000000,,2013-03-15 07:42:00,
2013-03-15 02:52:00,55.0,39.0,-100.00,SW,218,5.0,8.0,55,0.00,,,0.00,0.000000,,2013-03-15 07:52:00,
2013-03-15 03:02:00,55.0,39.0,-100.00,SW,218,5.0,8.0,55,0.00,,,0.00,0.000000,,2013-03-15 08:02:00,
2013-03-15 03:12:00,55.0,39.0,-100.00,SW,218,5.0,8.0,55,0.00,,,0.00,0.000000,,2013-03-15 08:12:00,
2013-03-15 03:33:00,53.0,39.0,-100.00,SW,232,5.0,7.0,59,0.00,,,0.00,0.000000,,2013-03-15 08:33:00,
2013-03-15 03:42:00,53.0,39.0,-100.00,SW,232,5.0,7.0,59,0.00,,,0.00,0.000000,,2013-03-15 08:42:00,
2013-03-15 03:52:00,53.0,39.0,-100.00,SW,232,5.0,7.0,59,0.00,,,0.00,0.000000,,2013-03-15 08:52:00,
2013-03-15 04:02:00,53.0,39.0,-100.00,SW,232,5.0,7.0,59,0.00,,,0.00,0.000000,,2013-03-15 09:02:00,
2013-03-15 04:12:00,53.0,39.0,-100.00,SW,232,5.0,7.0,59,0.00,,,0.00,0.000000,,2013-03-15 09:12:00,
2013-03-15 04:33:00,51.0,40.0,-100.00,SSW,212,5.0,7.0,65,0.00,,,0.00,0.000000,,2013-03-15 09:33:00,
2013-03-15 04:43:00,51.0,40.0,-100.00,SSW,212,5.0,7.0,65,0.00,,,0.00,0.000000,,2013-03-15 09:43:00,
2013-03-15 04:53:00,51.0,40.0,-100.00,SSW,212,5.0,7.0,65,0.00,,,0.00,0.000000,,2013-03-15 09:53:00,
2013-03-15 05:03:00,51.0,40.0,-100.00,SSW,212,5.0,7.0,65,0.00,,,0.00,0.000000,,2013-03-15 10:03:00,
2013-03-15 05:12:00,51.0,40.0,-100.00,SSW,212,5.0,7.0,65,0.00,,,0.00,0.000000,,2013-03-15 10:12:00,
2013-03-15 05:33:00,50.0,39.0,-100.00,SW,231,7.0,9.0,66,0.00,,,0.00,0.000000,,2013-03-15 10:33:00,
2013-03-15 05:43:00,50.0,39.0,-100.00,SW,231,7.0,9.0,66,0.00,,,0.00,0.000000,,2013-03-15 10:43:00,
2013-03-15 05:52:00,50.0,39.0,-100.00,SW,231,7.0,9.0,66,0.00,,,0.00,0.000000,,2013-03-15 10:52:00,
2013-03-15 06:03:00,50.0,39.0,-100.00,SW,231,7.0,9.0,66,0.00,,,0.00,0.000000,,2013-03-15 11:03:00,
2013-03-15 06:12:00,50.0,39.0,-100.00,SW,231,7.0,9.0,66,0.00,,,0.00,0.000000,,2013-03-15 11:12:00,
2013-03-15 06:32:00,51.0,38.0,-100.00,SW,226,5.0,10.0,62,0.00,,,0.00,0.000000,,2013-03-15 11:32:00,
2013-03-15 06:42:00,51.0,38.0,-100.00,SW,226,5.0,10.0,62,0.00,,,0.00,0.000000,,2013-03-15 11:42:00,
2013-03-15 06:52:00,51.0,38.0,-100.00,SW,226,5.0,10.0,62,0.00,,,0.00,0.000000,,2013-03-15 11:52:00,
2013-03-15 07:02:00,51.0,38.0,-100.00,SW,226,5.0,10.0,62,0.00,,,0.00,0.000000,,2013-03-15 12:02:00,
2013-03-15 07:12:00,51.0,38.0,-100.00,SW,226,5.0,10.0,62,0.00,,,0.00,0.000000,,2013-03-15 12:12:00,
2013-03-15 07:32:00,49.0,39.0,-100.00,SW,225,5.0,8.0,67,0.00,,,0.00,0.000000,,2013-03-15 12:32:00,
2013-03-15 07:42:00,49.0,39.0,-100.00,SW,225,5.0,8.0,67,0.00,,,0.00,0.000000,,2013-03-15 12:42:00,
2013-03-15 07:52:00,49.0,39.0,-100.00,SW,225,5.0,8.0,67,0.00,,,0.00,0.000000,,2013-03-15 12:52:00,
2013-03-15 08:02:00,49.0,39.0,-100.00,SW,225,5.0,8.0,67,0.00,,,0.00,0.000000,,2013-03-15 13:02:00,
2013-03-15 08:12:00,49.0,39.0,-100.00,SW,225,5.0,8.0,67,0.00,,,0.00,0.000000,,2013-03-15 13:12:00,
2013-03-15 08:42:00,53.0,42.0,-100.00,SW,214,7.0,10.0,65,0.00,,,0.00,48.000000,,2013-03-15 13:42:00,
2013-03-15 08:52:00,53.0,42.0,-100.00,SW,214,7.0,10.0,65,0.00,,,0.00,48.000000,,2013-03-15 13:52:00,
2013-03-15 09:02:00,53.0,42.0,-100.00,SW,214,7.0,10.0,65,0.00,,,0.00,48.000000,,2013-03-15 14:02:00,
2013-03-15 09:12:00,53.0,42.0,-100.00,SW,214,7.0,10.0,65,0.00,,,0.00,48.000000,,2013-03-15 14:12:00,
2013-03-15 09:13:00,59.0,43.0,-100.00,SSW,213,6.0,12.0,56,0.00,,,0.00,243.000000,,2013-03-15 14:13:00,
2013-03-15 09:33:00,59.0,43.0,-100.00,SSW,213,6.0,12.0,56,0.00,,,0.00,243.000000,,2013-03-15 14:33:00,
2013-03-15 09:42:00,59.0,43.0,-100.00,SSW,213,6.0,12.0,56,0.00,,,0.00,243.000000,,2013-03-15 14:42:00,
2013-03-15 09:53:00,59.0,43.0,-100.00,SSW,213,6.0,12.0,56,0.00,,,0.00,243.000000,,2013-03-15 14:53:00,
2013-03-15 10:02:00,59.0,43.0,-100.00,SSW,213,6.0,12.0,56,0.00,,,0.00,243.000000,,2013-03-15 15:02:00,
2013-03-15 10:33:00,62.0,44.0,-100.00,SW,214,8.0,18.0,51,0.00,,,0.00,373.000000,,2013-03-15 15:33:00,
2013-03-15 10:43:00,62.0,44.0,-100.00,SW,214,8.0,18.0,51,0.00,,,0.00,373.000000,,2013-03-15 15:43:00,
2013-03-15 10:53:00,62.0,44.0,-100.00,SW,214,8.0,18.0,51,0.00,,,0.00,373.000000,,2013-03-15 15:53:00,
2013-03-15 11:03:00,62.0,44.0,-100.00,SW,214,8.0,18.0,51,0.00,,,0.00,373.000000,,2013-03-15 16:03:00,
2013-03-15 11:12:00,62.0,44.0,-100.00,SW,214,8.0,18.0,51,0.00,,,0.00,373.000000,,2013-03-15 16:12:00,
2013-03-15 11:32:00,67.0,45.0,-100.00,SSW,206,8.0,15.0,45,0.00,,,0.00,567.000000,,2013-03-15 16:32:00,
2013-03-15 11:42:00,67.0,45.0,-100.00,SSW,206,8.0,15.0,45,0.00,,,0.00,567.000000,,2013-03-15 16:42:00,
2013-03-15 11:52:00,67.0,45.0,-100.00,SSW,206,8.0,15.0,45,0.00,,,0.00,567.000000,,2013-03-15 16:52:00,
2013-03-15 12:02:00,67.0,45.0,-100.00,SSW,206,8.0,15.0,45,0.00,,,0.00,567.000000,,2013-03-15 17:02:00,
2013-03-15 12:12:00,67.0,45.0,-100.00,SSW,206,8.0,15.0,45,0.00,,,0.00,567.000000,,2013-03-15 17:12:00,
2013-03-15 12:32:00,70.0,45.0,-100.00,SW,235,8.0,14.0,41,0.00,,,0.00,601.000000,,2013-03-15 17:32:00,
2013-03-15 12:43:00,70.0,45.0,-100.00,SW,235,8.0,14.0,41,0.00,,,0.00,601.000000,,2013-03-15 17:43:00,
2013-03-15 12:53:00,70.0,45.0,-100.00,SW,235,8.0,14.0,41,0.00,,,0.00,601.000000,,2013-03-15 17:53:00,
2013-03-15 13:02:00,70.0,45.0,-100.00,SW,235,8.0,14.0,41,0.00,,,0.00,601.000000,,2013-03-15 18:02:00,
2013-03-15 13:12:00,70.0,45.0,-100.00,SW,235,8.0,14.0,41,0.00,,,0.00,601.000000,,2013-03-15 18:12:00,
2013-03-15 13:42:00,74.0,44.0,-100.00,WSW,239,11.0,17.0,34,0.00,,,0.00,917.000000,,2013-03-15 18:42:00,
2013-03-15 13:52:00,74.0,44.0,-100.00,WSW,239,11.0,17.0,34,0.00,,,0.00,917.000000,,2013-03-15 18:52:00,
2013-03-15 14:02:00,74.0,44.0,-100.00,WSW,239,11.0,17.0,34,0.00,,,0.00,917.000000,,2013-03-15 19:02:00,
2013-03-15 14:12:00,74.0,44.0,-100.00,WSW,239,11.0,17.0,34,0.00,,,0.00,917.000000,,2013-03-15 19:12:00,
2013-03-15 14:42:00,77.0,45.0,-100.00,WSW,237,11.0,20.0,32,0.00,,,-99.99,884.000000,,2013-03-15 19:42:00,
2013-03-15 14:52:00,77.0,45.0,-100.00,WSW,237,11.0,20.0,32,0.00,,,-99.99,884.000000,,2013-03-15 19:52:00,
2013-03-15 15:02:00,77.0,45.0,-100.00,WSW,237,11.0,20.0,32,0.00,,,-99.99,884.000000,,2013-03-15 20:02:00,
2013-03-15 15:12:00,77.0,45.0,-100.00,WSW,237,11.0,20.0,32,0.00,,,-99.99,884.000000,,2013-03-15 20:12:00,
2013-03-15 15:42:00,77.0,43.0,-100.00,SW,230,10.0,21.0,30,0.00,,,0.00,671.000000,,2013-03-15 20:42:00,
2013-03-15 15:52:00,77.0,43.0,-100.00,SW,230,10.0,21.0,30,0.00,,,0.00,671.000000,,2013-03-15 20:52:00,
2013-03-15 16:02:00,77.0,43.0,-100.00,SW,230,10.0,21.0,30,0.00,,,0.00,671.000000,,2013-03-15 21:02:00,
2013-03-15 16:12:00,77.0,43.0,-100.00,SW,230,10.0,21.0,30,0.00,,,0.00,671.000000,,2013-03-15 21:12:00,
2013-03-15 16:13:00,78.0,44.0,-100.00,SW,231,11.0,21.0,30,0.00,,,0.00,458.000000,,2013-03-15 21:13:00,
2013-03-15 16:43:00,78.0,44.0,-100.00,SW,231,11.0,21.0,30,0.00,,,0.00,458.000000,,2013-03-15 21:43:00,
2013-03-15 16:53:00,78.0,44.0,-100.00,SW,231,11.0,21.0,30,0.00,,,0.00,458.000000,,2013-03-15 21:53:00,
2013-03-15 17:03:00,78.0,44.0,-100.00,SW,231,11.0,21.0,30,0.00,,,0.00,458.000000,,2013-03-15 22:03:00,
2013-03-15 17:33:00,79.0,41.0,-100.00,SW,221,9.0,20.0,26,0.00,,,0.00,524.000000,,2013-03-15 22:33:00,
2013-03-15 17:42:00,79.0,41.0,-100.00,SW,221,9.0,20.0,26,0.00,,,0.00,524.000000,,2013-03-15 22:42:00,
2013-03-15 17:53:00,79.0,41.0,-100.00,SW,221,9.0,20.0,26,0.00,,,0.00,524.000000,,2013-03-15 22:53:00,
2013-03-15 18:02:00,79.0,41.0,-100.00,SW,221,9.0,20.0,26,0.00,,,0.00,524.000000,,2013-03-15 23:02:00,
2013-03-15 18:12:00,79.0,41.0,-100.00,SW,221,9.0,20.0,26,0.00,,,0.00,524.000000,,2013-03-15 23:12:00,
2013-03-15 18:42:00,76.0,41.0,-100.00,SW,224,12.0,21.0,29,0.00,,,0.00,240.000000,,2013-03-15 23:42:00,
2013-03-15 18:53:00,76.0,41.0,-100.00,SW,224,12.0,21.0,29,0.00,,,0.00,240.000000,,2013-03-15 23:53:00,
2013-03-15 19:02:00,76.0,41.0,-100.00,SW,224,12.0,21.0,29,0.00,,,0.00,240.000000,,2013-03-16 00:02:00,
2013-03-15 19:12:00,76.0,41.0,-100.00,SW,224,12.0,21.0,29,0.00,,,0.00,240.000000,,2013-03-16 00:12:00,
2013-03-15 20:32:00,70.0,43.0,-100.00,SW,236,9.0,15.0,37,-99.99,,,0.00,1.000000,,2013-03-16 01:32:00,
2013-03-15 20:42:00,70.0,43.0,-100.00,SW,236,9.0,15.0,37,-99.99,,,0.00,1.000000,,2013-03-16 01:42:00,
2013-03-15 20:53:00,70.0,43.0,-100.00,SW,236,9.0,15.0,37,-99.99,,,0.00,1.000000,,2013-03-16 01:53:00,
2013-03-15 21:02:00,70.0,43.0,-100.00,SW,236,9.0,15.0,37,-99.99,,,0.00,1.000000,,2013-03-16 02:02:00,
2013-03-15 21:12:00,70.0,43.0,-100.00,SW,236,9.0,15.0,37,-99.99,,,0.00,1.000000,,2013-03-16 02:12:00,
2013-03-15 21:43:00,69.0,44.0,-100.00,SW,221,8.0,13.0,40,0.00,,,0.00,0.000000,,2013-03-16 02:43:00,
2013-03-15 21:52:00,69.0,44.0,-100.00,SW,221,8.0,13.0,40,0.00,,,0.00,0.000000,,2013-03-16 02:52:00,
2013-03-15 22:02:00,69.0,44.0,-100.00,SW,221,8.0,13.0,40,0.00,,,0.00,0.000000,,2013-03-16 03:02:00,
2013-03-15 22:12:00,69.0,44.0,-100.00,SW,221,8.0,13.0,40,0.00,,,0.00,0.000000,,2013-03-16 03:12:00,
2013-03-15 22:43:00,68.0,43.0,-100.00,SW,218,9.0,17.0,41,0.00,,,-99.99,0.000000,,2013-03-16 03:43:00,
2013-03-15 22:53:00,68.0,43.0,-100.00,SW,218,9.0,17.0,41,0.00,,,-99.99,0.000000,,2013-03-16 03:53:00,
2013-03-15 23:02:00,68.0,43.0,-100.00,SW,218,9.0,17.0,41,0.00,,,-99.99,0.000000,,2013-03-16 04:02:00,
2013-03-15 23:12:00,68.0,43.0,-100.00,SW,218,9.0,17.0,41,0.00,,,-99.99,0.000000,,2013-03-16 04:12:00,
2013-03-15 23:33:00,68.0,43.0,-100.00,SW,222,11.0,18.0,41,0.00,,,0.00,0.000000,,2013-03-16 04:33:00,
2013-03-15 23:43:00,68.0,43.0,-100.00,SW,222,11.0,18.0,41,0.00,,,0.00,0.000000,,2013-03-16 04:43:00,
2013-03-15 23:53:00,68.0,43.0,-100.00,SW,222,11.0,18.0,41,0.00,,,0.00,0.000000,,2013-03-16 04:53:00,